createdAt,value
2019-02-19T00:00:12.762Z,101047.20
2019-02-19T00:01:21.644Z,101037.60
2019-02-19T00:02:28.461Z,101035.00
2019-02-19T00:03:41.911Z,101037.69
2019-02-19T00:04:52.610Z,101038.50
2019-02-19T00:05:59.524Z,101039.80
2019-02-19T00:07:06.092Z,101038.91
2019-02-19T00:08:13.103Z,101039.75
2019-02-19T00:09:19.859Z,101037.31
2019-02-19T00:10:26.739Z,101038.20
2019-02-19T00:11:34.024Z,101041.03
2019-02-19T00:12:40.942Z,101041.03
2019-02-19T00:14:21.414Z,101045.02
2019-02-19T00:15:29.352Z,101042.52
2019-02-19T00:16:36.682Z,101040.81
2019-02-19T00:17:43.086Z,101037.20
2019-02-19T00:18:50.935Z,101029.80
2019-02-19T00:19:58.551Z,101032.61
2019-02-19T00:21:05.597Z,101031.62
2019-02-19T00:22:14.005Z,101028.03
2019-02-19T00:23:20.733Z,101030.17
2019-02-19T00:24:28.057Z,101029.77
2019-02-19T00:25:34.881Z,101028.88
2019-02-19T00:26:42.209Z,101024.39
2019-02-19T00:28:09.666Z,101019.54
2019-02-19T00:29:15.702Z,101016.76
2019-02-19T00:30:22.010Z,101020.60
2019-02-19T00:31:28.826Z,101017.02
2019-02-19T00:32:35.941Z,101009.71
2019-02-19T00:33:42.001Z,101008.76
2019-02-19T00:34:48.932Z,101016.95
2019-02-19T00:35:55.985Z,101005.58
2019-02-19T00:37:03.631Z,101003.37
2019-02-19T00:38:10.025Z,100999.48
2019-02-19T00:39:16.730Z,101002.58
2019-02-19T00:40:23.630Z,101006.07
2019-02-19T00:41:30.544Z,101004.60
2019-02-19T00:42:36.793Z,101005.06
2019-02-19T00:43:44.395Z,100998.16
2019-02-19T00:44:51.242Z,100999.55
2019-02-19T00:45:57.836Z,100995.34
2019-02-19T00:47:03.904Z,100990.14
2019-02-19T00:48:11.181Z,100995.80
2019-02-19T00:49:17.677Z,100999.06
2019-02-19T00:50:24.771Z,100997.52
2019-02-19T00:51:31.809Z,100995.59
2019-02-19T00:52:38.865Z,100993.08
2019-02-19T00:53:45.888Z,100996.22
2019-02-19T00:54:53.403Z,101000.52
2019-02-19T00:56:00.358Z,100996.31
2019-02-19T00:57:07.505Z,100985.83
2019-02-19T00:58:14.260Z,100993.31
2019-02-19T00:59:21.879Z,100996.86
2019-02-19T01:00:29.102Z,100997.76
2019-02-19T01:01:35.560Z,100994.44
2019-02-19T01:02:42.537Z,100990.86
2019-02-19T01:03:49.395Z,100985.52
2019-02-19T01:04:56.592Z,100984.93
2019-02-19T01:06:03.539Z,100985.77
2019-02-19T01:07:29.962Z,100981.78
2019-02-19T01:08:36.643Z,100983.48
2019-02-19T01:09:43.145Z,100973.26
2019-02-19T01:10:50.650Z,100972.63
2019-02-19T01:11:57.346Z,100970.69
2019-02-19T01:13:04.204Z,100971.25
2019-02-19T01:14:11.324Z,100966.25
2019-02-19T01:15:25.240Z,100962.27
2019-02-19T01:16:26.382Z,100966.07
2019-02-19T01:17:33.499Z,100961.22
2019-02-19T01:18:40.366Z,100958.39
2019-02-19T01:19:47.164Z,100957.25
2019-02-19T01:20:53.902Z,100953.75
2019-02-19T01:22:00.737Z,100950.61
2019-02-19T01:23:07.754Z,100945.32
2019-02-19T01:24:14.697Z,100949.77
2019-02-19T01:25:21.151Z,100944.27
2019-02-19T01:26:27.523Z,100939.80
2019-02-19T01:27:34.425Z,100940.27
2019-02-19T01:28:41.663Z,100940.75
2019-02-19T01:29:49.079Z,100938.56
2019-02-19T01:30:55.469Z,100933.55
2019-02-19T01:32:02.259Z,100933.95
2019-02-19T01:33:08.461Z,100940.59
2019-02-19T01:34:15.756Z,100930.20
2019-02-19T01:35:22.542Z,100928.98
2019-02-19T01:36:30.691Z,100933.14
2019-02-19T01:37:37.505Z,100922.08
2019-02-19T01:38:44.004Z,100922.42
2019-02-19T01:39:51.841Z,100919.73
2019-02-19T01:40:58.833Z,100920.14
2019-02-19T01:42:06.182Z,100919.99
2019-02-19T01:43:13.845Z,100916.91
2019-02-19T01:44:22.909Z,100914.50
2019-02-19T01:45:34.128Z,100921.00
2019-02-19T01:46:38.901Z,100912.13
2019-02-19T01:47:46.796Z,100914.02
2019-02-19T01:48:54.483Z,100911.02
2019-02-19T01:50:01.726Z,100914.06
2019-02-19T01:51:09.520Z,100915.80
2019-02-19T01:52:16.152Z,100909.71
2019-02-19T01:53:22.857Z,100907.43
2019-02-19T01:54:29.801Z,100902.81
2019-02-19T01:55:36.485Z,100904.66
2019-02-19T01:56:43.136Z,100903.37
2019-02-19T01:57:50.320Z,100896.38
2019-02-19T01:58:57.332Z,100909.52
2019-02-19T02:00:05.362Z,100905.22
2019-02-19T02:01:15.743Z,100901.41
2019-02-19T02:02:23.112Z,100900.84
2019-02-19T02:03:30.170Z,100894.25
2019-02-19T02:04:36.711Z,100895.06
2019-02-19T02:05:43.649Z,100899.45
2019-02-19T02:06:50.116Z,100895.47
2019-02-19T02:07:56.664Z,100892.95
2019-02-19T02:09:05.159Z,100893.70
2019-02-19T02:10:11.764Z,100895.00
2019-02-19T02:11:18.254Z,100888.42
2019-02-19T02:12:25.111Z,100889.17
2019-02-19T02:13:31.779Z,100892.43
2019-02-19T02:14:38.786Z,100887.45
2019-02-19T02:15:45.439Z,100881.31
2019-02-19T02:16:53.074Z,100886.56
2019-02-19T02:17:59.903Z,100881.17
2019-02-19T02:19:06.736Z,100881.57
2019-02-19T02:20:13.896Z,100877.09
2019-02-19T02:21:21.191Z,100870.20
2019-02-19T02:22:28.615Z,100879.19
2019-02-19T02:23:35.511Z,100872.94
2019-02-19T02:24:42.348Z,100873.84
2019-02-19T02:25:49.353Z,100874.23
2019-02-19T02:26:56.545Z,100865.91
2019-02-19T02:28:03.456Z,100877.98
2019-02-19T02:29:10.187Z,100872.70
2019-02-19T02:30:17.108Z,100874.98
2019-02-19T02:31:23.661Z,100876.38
2019-02-19T02:32:30.845Z,100874.23
2019-02-19T02:33:38.604Z,100865.59
2019-02-19T02:34:45.264Z,100870.45
2019-02-19T02:35:51.446Z,100864.63
2019-02-19T02:36:58.425Z,100861.78
2019-02-19T02:38:05.478Z,100856.45
2019-02-19T02:39:13.417Z,100855.95
2019-02-19T02:40:22.570Z,100857.75
2019-02-19T02:41:29.911Z,100847.27
2019-02-19T02:42:37.190Z,100846.92
2019-02-19T02:43:44.860Z,100850.02
2019-02-19T02:44:51.446Z,100842.63
2019-02-19T02:45:57.923Z,100847.52
2019-02-19T02:47:04.987Z,100845.24
2019-02-19T02:48:12.276Z,100845.70
2019-02-19T02:49:20.008Z,100848.39
2019-02-19T02:50:27.823Z,100839.21
2019-02-19T02:51:34.745Z,100839.70
2019-02-19T02:52:41.445Z,100839.96
2019-02-19T02:53:49.282Z,100845.81
2019-02-19T02:54:57.056Z,100837.38
2019-02-19T02:56:03.757Z,100839.89
2019-02-19T02:57:10.335Z,100839.25
2019-02-19T02:58:17.784Z,100842.65
2019-02-19T02:59:24.313Z,100844.60
2019-02-19T03:00:31.407Z,100837.88
2019-02-19T03:01:37.894Z,100840.81
2019-02-19T03:02:45.048Z,100841.06
2019-02-19T03:03:52.024Z,100839.98
2019-02-19T03:04:58.477Z,100836.99
2019-02-19T03:06:11.473Z,100835.29
2019-02-19T03:07:19.909Z,100837.63
2019-02-19T03:08:27.226Z,100837.23
2019-02-19T03:09:33.991Z,100843.01
2019-02-19T03:10:40.567Z,100840.56
2019-02-19T03:11:47.115Z,100841.52
2019-02-19T03:12:54.369Z,100841.61
2019-02-19T03:14:00.719Z,100842.73
2019-02-19T03:15:09.625Z,100838.84
2019-02-19T03:16:17.131Z,100839.74
2019-02-19T03:17:24.271Z,100839.74
2019-02-19T03:18:31.818Z,100844.93
2019-02-19T03:19:58.968Z,100838.94
2019-02-19T03:21:05.034Z,100843.69
2019-02-19T03:22:11.332Z,100841.44
2019-02-19T03:23:18.602Z,100838.70
2019-02-19T03:24:26.081Z,100844.69
2019-02-19T03:25:33.252Z,100840.71
2019-02-19T03:26:41.165Z,100844.95
2019-02-19T03:27:48.388Z,100836.58
2019-02-19T03:28:55.047Z,100833.92
2019-02-19T03:30:02.044Z,100839.42
2019-02-19T03:31:08.415Z,100837.82
2019-02-19T03:32:15.700Z,100828.64
2019-02-19T03:33:22.779Z,100825.95
2019-02-19T03:34:29.836Z,100829.39
2019-02-19T03:35:37.275Z,100822.56
2019-02-19T03:36:44.586Z,100823.45
2019-02-19T03:37:51.224Z,100823.45
2019-02-19T03:38:57.638Z,100820.71
2019-02-19T03:40:04.279Z,100825.25
2019-02-19T03:41:11.374Z,100823.55
2019-02-19T03:42:17.790Z,100815.41
2019-02-19T03:43:24.466Z,100821.99
2019-02-19T03:44:31.866Z,100821.65
2019-02-19T03:45:38.880Z,100816.64
2019-02-19T03:46:45.734Z,100816.64
2019-02-19T03:47:53.248Z,100810.37
2019-02-19T03:48:59.565Z,100815.27
2019-02-19T03:50:06.887Z,100805.36
2019-02-19T03:51:13.294Z,100811.30
2019-02-19T03:52:20.186Z,100805.47
2019-02-19T03:53:27.088Z,100807.17
2019-02-19T03:54:33.710Z,100810.25
2019-02-19T03:55:40.984Z,100802.22
2019-02-19T03:56:47.607Z,100803.11
2019-02-19T03:57:54.322Z,100792.50
2019-02-19T03:59:01.928Z,100794.05
2019-02-19T04:00:10.743Z,100788.70
2019-02-19T04:01:18.433Z,100789.83
2019-02-19T04:02:25.464Z,100788.93
2019-02-19T04:03:32.585Z,100783.34
2019-02-19T04:04:39.504Z,100792.60
2019-02-19T04:05:46.693Z,100789.17
2019-02-19T04:06:53.930Z,100789.81
2019-02-19T04:08:02.549Z,100788.45
2019-02-19T04:09:09.840Z,100790.45
2019-02-19T04:10:17.018Z,100790.14
2019-02-19T04:11:24.998Z,100790.14
2019-02-19T04:12:33.128Z,100787.45
2019-02-19T04:13:40.164Z,100781.86
2019-02-19T04:14:47.720Z,100792.50
2019-02-19T04:15:55.845Z,100783.91
2019-02-19T04:17:03.718Z,100790.45
2019-02-19T04:18:10.676Z,100784.14
2019-02-19T04:19:18.160Z,100784.61
2019-02-19T04:20:24.744Z,100786.65
2019-02-19T04:21:31.663Z,100783.51
2019-02-19T04:22:38.652Z,100778.77
2019-02-19T04:23:46.856Z,100779.22
2019-02-19T04:24:53.351Z,100770.68
2019-02-19T04:26:00.214Z,100777.16
2019-02-19T04:27:06.830Z,100771.98
2019-02-19T04:28:13.895Z,100774.08
2019-02-19T04:29:20.783Z,100766.30
2019-02-19T04:30:27.212Z,100765.80
2019-02-19T04:31:34.068Z,100766.31
2019-02-19T04:32:40.598Z,100771.41
2019-02-19T04:33:47.001Z,100760.38
2019-02-19T04:34:54.235Z,100765.11
2019-02-19T04:36:00.607Z,100765.66
2019-02-19T04:37:07.274Z,100767.30
2019-02-19T04:38:14.019Z,100762.52
2019-02-19T04:39:20.928Z,100768.75
2019-02-19T04:40:27.608Z,100770.99
2019-02-19T04:41:34.277Z,100765.89
2019-02-19T04:42:41.674Z,100774.02
2019-02-19T04:43:48.628Z,100772.63
2019-02-19T04:44:56.918Z,100773.59
2019-02-19T04:46:03.616Z,100773.19
2019-02-19T04:47:11.620Z,100765.73
2019-02-19T04:48:19.493Z,100765.14
2019-02-19T04:49:26.464Z,100758.11
2019-02-19T04:50:33.447Z,100761.03
2019-02-19T04:51:39.847Z,100764.23
2019-02-19T04:52:47.542Z,100755.80
2019-02-19T04:53:54.047Z,100742.33
2019-02-19T04:55:00.717Z,100742.64
2019-02-19T04:56:08.722Z,100740.39
2019-02-19T04:57:15.550Z,100733.27
2019-02-19T04:58:22.811Z,100727.59
2019-02-19T04:59:29.554Z,100732.92
2019-02-19T05:00:36.651Z,100731.80
2019-02-19T05:01:43.631Z,100739.19
2019-02-19T05:02:51.634Z,100731.95
2019-02-19T05:03:58.269Z,100732.61
2019-02-19T05:05:05.415Z,100731.72
2019-02-19T05:06:12.266Z,100722.00
2019-02-19T05:07:19.925Z,100718.91
2019-02-19T05:08:26.326Z,100731.17
2019-02-19T05:09:32.526Z,100723.37
2019-02-19T05:10:38.708Z,100727.64
2019-02-19T05:11:45.857Z,100719.69
2019-02-19T05:12:52.292Z,100725.91
2019-02-19T05:13:59.101Z,100714.87
2019-02-19T05:15:09.315Z,100708.06
2019-02-19T05:16:16.873Z,100708.21
2019-02-19T05:17:23.643Z,100702.84
2019-02-19T05:18:30.159Z,100707.20
2019-02-19T05:19:36.464Z,100709.67
2019-02-19T05:20:43.030Z,100713.38
2019-02-19T05:21:49.983Z,100712.45
2019-02-19T05:22:56.994Z,100713.16
2019-02-19T05:24:04.850Z,100715.49
2019-02-19T05:25:11.479Z,100705.91
2019-02-19T05:26:19.072Z,100708.37
2019-02-19T05:27:25.716Z,100708.69
2019-02-19T05:28:32.477Z,100711.78
2019-02-19T05:29:40.839Z,100708.37
2019-02-19T05:30:48.157Z,100709.09
2019-02-19T05:31:55.082Z,100712.31
2019-02-19T05:33:02.108Z,100705.87
2019-02-19T05:34:09.254Z,100707.66
2019-02-19T05:35:15.768Z,100714.28
2019-02-19T05:36:22.944Z,100709.04
2019-02-19T05:37:30.005Z,100708.06
2019-02-19T05:38:37.040Z,100708.28
2019-02-19T05:39:44.429Z,100709.75
2019-02-19T05:40:51.708Z,100708.45
2019-02-19T05:41:58.785Z,100703.25
2019-02-19T05:43:06.759Z,100705.36
2019-02-19T05:44:13.399Z,100707.20
2019-02-19T05:45:20.798Z,100710.83
2019-02-19T05:46:27.477Z,100715.16
2019-02-19T05:47:33.988Z,100718.52
2019-02-19T05:48:40.493Z,100711.75
2019-02-19T05:49:46.778Z,100715.95
2019-02-19T05:50:54.005Z,100706.02
2019-02-19T05:52:00.815Z,100715.05
2019-02-19T05:53:08.215Z,100704.80
2019-02-19T05:54:14.948Z,100706.31
2019-02-19T05:55:22.146Z,100712.05
2019-02-19T05:56:28.651Z,100708.23
2019-02-19T05:57:36.806Z,100704.46
2019-02-19T05:58:43.897Z,100706.38
2019-02-19T05:59:50.515Z,100706.27
2019-02-19T06:00:57.483Z,100712.57
2019-02-19T06:02:04.281Z,100710.23
2019-02-19T06:03:11.518Z,100707.55
2019-02-19T06:04:18.815Z,100702.03
2019-02-19T06:05:25.726Z,100707.64
2019-02-19T06:06:32.479Z,100697.31
2019-02-19T06:07:38.961Z,100693.70
2019-02-19T06:08:46.259Z,100697.16
2019-02-19T06:09:53.281Z,100698.45
2019-02-19T06:11:00.096Z,100696.02
2019-02-19T06:12:07.065Z,100707.08
2019-02-19T06:13:13.735Z,100697.85
2019-02-19T06:14:20.294Z,100691.19
2019-02-19T06:15:27.396Z,100709.97
2019-02-19T06:16:34.299Z,100703.47
2019-02-19T06:17:40.761Z,100702.77
2019-02-19T06:18:48.287Z,100704.77
2019-02-19T06:19:55.666Z,100709.31
2019-02-19T06:21:02.268Z,100715.61
2019-02-19T06:22:08.998Z,100705.08
2019-02-19T06:23:16.329Z,100700.12
2019-02-19T06:24:23.521Z,100698.78
2019-02-19T06:25:29.713Z,100697.88
2019-02-19T06:26:36.727Z,100697.48
2019-02-19T06:27:44.426Z,100699.27
2019-02-19T06:28:57.544Z,100703.70
2019-02-19T06:30:14.632Z,100702.92
2019-02-19T06:31:21.726Z,100711.91
2019-02-19T06:32:30.376Z,100708.80
2019-02-19T06:33:38.058Z,100703.09
2019-02-19T06:34:44.026Z,100704.59
2019-02-19T06:35:50.301Z,100707.23
2019-02-19T06:36:57.269Z,100707.57
2019-02-19T06:38:03.242Z,100709.52
2019-02-19T06:39:09.683Z,100711.91
2019-02-19T06:40:27.668Z,100713.39
2019-02-19T06:41:34.685Z,100708.45
2019-02-19T06:42:41.427Z,100711.47
2019-02-19T06:43:49.718Z,100717.01
2019-02-19T06:44:55.933Z,100715.45
2019-02-19T06:46:04.309Z,100712.28
2019-02-19T06:47:10.733Z,100708.48
2019-02-19T06:48:17.998Z,100707.70
2019-02-19T06:49:25.386Z,100702.55
2019-02-19T06:50:34.460Z,100706.30
2019-02-19T06:51:42.022Z,100704.73
2019-02-19T06:52:49.108Z,100706.00
2019-02-19T06:53:56.140Z,100700.79
2019-02-19T06:55:04.762Z,100698.52
2019-02-19T06:56:12.991Z,100691.52
2019-02-19T06:57:19.749Z,100696.47
2019-02-19T06:58:26.773Z,100702.27
2019-02-19T06:59:35.422Z,100703.03
2019-02-19T07:00:41.578Z,100701.91
2019-02-19T07:02:04.634Z,100694.98
2019-02-19T07:03:18.425Z,100695.42
2019-02-19T07:04:26.415Z,100696.87
2019-02-19T07:05:33.855Z,100693.95
2019-02-19T07:06:40.595Z,100706.28
2019-02-19T07:07:48.157Z,100702.47
2019-02-19T07:08:54.887Z,100701.72
2019-02-19T07:10:02.087Z,100698.25
2019-02-19T07:11:08.646Z,100706.14
2019-02-19T07:12:15.447Z,100696.77
2019-02-19T07:13:22.295Z,100689.56
2019-02-19T07:14:29.453Z,100690.59
2019-02-19T07:15:37.147Z,100688.49
2019-02-19T07:16:44.429Z,100689.07
2019-02-19T07:17:50.959Z,100695.77
2019-02-19T07:18:58.371Z,100687.63
2019-02-19T07:20:07.691Z,100681.67
2019-02-19T07:21:15.422Z,100683.11
2019-02-19T07:22:22.642Z,100676.27
2019-02-19T07:23:30.250Z,100677.84
2019-02-19T07:24:37.057Z,100675.96
2019-02-19T07:25:44.215Z,100692.30
2019-02-19T07:26:51.351Z,100683.28
2019-02-19T07:27:58.297Z,100680.77
2019-02-19T07:29:06.515Z,100686.00
2019-02-19T07:30:13.744Z,100681.75
2019-02-19T07:31:21.384Z,100686.31
2019-02-19T07:32:28.884Z,100691.30
2019-02-19T07:33:35.757Z,100682.80
2019-02-19T07:34:42.965Z,100683.93
2019-02-19T07:35:50.861Z,100691.16
2019-02-19T07:36:58.184Z,100688.37
2019-02-19T07:38:04.900Z,100690.39
2019-02-19T07:39:12.442Z,100684.09
2019-02-19T07:40:19.053Z,100686.44
2019-02-19T07:41:26.270Z,100683.64
2019-02-19T07:42:34.599Z,100676.72
2019-02-19T07:43:41.301Z,100674.36
2019-02-19T07:44:48.436Z,100672.39
2019-02-19T07:45:55.480Z,100671.64
2019-02-19T07:47:02.506Z,100674.39
2019-02-19T07:48:09.144Z,100680.23
2019-02-19T07:49:16.153Z,100676.87
2019-02-19T07:50:23.184Z,100677.01
2019-02-19T07:51:30.633Z,100679.84
2019-02-19T07:52:37.570Z,100669.56
2019-02-19T07:53:44.555Z,100664.88
2019-02-19T07:54:51.878Z,100659.38
2019-02-19T07:56:00.990Z,100659.94
2019-02-19T07:57:08.281Z,100660.06
2019-02-19T07:58:15.461Z,100660.66
2019-02-19T07:59:23.232Z,100650.34
2019-02-19T08:00:32.905Z,100650.92
2019-02-19T08:01:41.900Z,100657.20
2019-02-19T08:02:49.584Z,100643.83
2019-02-19T08:03:58.385Z,100647.09
2019-02-19T08:05:06.526Z,100653.02
2019-02-19T08:06:14.523Z,100653.26
2019-02-19T08:07:21.294Z,100651.30
2019-02-19T08:08:28.484Z,100658.91
2019-02-19T08:09:35.446Z,100659.51
2019-02-19T08:10:42.835Z,100663.20
2019-02-19T08:11:49.620Z,100656.86
2019-02-19T08:12:56.413Z,100659.23
2019-02-19T08:14:03.626Z,100659.88
2019-02-19T08:15:14.933Z,100649.88
2019-02-19T08:16:21.974Z,100666.30
2019-02-19T08:17:33.269Z,100659.86
2019-02-19T08:18:36.895Z,100664.32
2019-02-19T08:19:44.052Z,100661.38
2019-02-19T08:20:51.340Z,100660.27
2019-02-19T08:21:58.283Z,100663.94
2019-02-19T08:23:06.676Z,100665.88
2019-02-19T08:24:15.329Z,100652.41
2019-02-19T08:25:22.901Z,100660.90
2019-02-19T08:26:30.226Z,100666.81
2019-02-19T08:27:37.023Z,100659.97
2019-02-19T08:28:44.003Z,100657.07
2019-02-19T08:29:51.258Z,100658.98
2019-02-19T08:30:57.392Z,100656.88
2019-02-19T08:32:04.423Z,100651.80
2019-02-19T08:33:12.165Z,100648.42
2019-02-19T08:34:19.120Z,100646.81
2019-02-19T08:35:25.667Z,100650.37
2019-02-19T08:36:34.765Z,100657.03
2019-02-19T08:37:41.948Z,100654.57
2019-02-19T08:38:48.958Z,100645.88
2019-02-19T08:39:55.963Z,100649.36
2019-02-19T08:41:03.785Z,100652.49
2019-02-19T08:42:10.143Z,100653.81
2019-02-19T08:43:17.376Z,100646.86
2019-02-19T08:44:24.403Z,100648.67
2019-02-19T08:45:31.518Z,100644.30
2019-02-19T08:46:38.160Z,100643.49
2019-02-19T08:47:45.438Z,100643.95
2019-02-19T08:48:52.726Z,100649.25
2019-02-19T08:50:00.698Z,100644.50
2019-02-19T08:51:08.098Z,100641.02
2019-02-19T08:52:15.872Z,100645.86
2019-02-19T08:53:22.570Z,100643.30
2019-02-19T08:54:29.037Z,100646.36
2019-02-19T08:55:35.457Z,100646.86
2019-02-19T08:56:42.859Z,100639.86
2019-02-19T08:57:48.980Z,100642.91
2019-02-19T08:58:55.598Z,100642.56
2019-02-19T09:00:01.619Z,100639.94
2019-02-19T09:01:09.823Z,100643.88
2019-02-19T09:02:17.100Z,100643.92
2019-02-19T09:03:23.324Z,100637.80
2019-02-19T09:04:33.706Z,100640.44
2019-02-19T09:05:41.624Z,100641.29
2019-02-19T09:06:49.797Z,100643.92
2019-02-19T09:07:57.314Z,100637.34
2019-02-19T09:09:05.546Z,100632.08
2019-02-19T09:10:14.643Z,100629.45
2019-02-19T09:11:20.443Z,100632.08
2019-02-19T09:12:28.896Z,100630.45
2019-02-19T09:13:35.124Z,100625.69
2019-02-19T09:14:41.179Z,100631.91
2019-02-19T09:15:48.177Z,100626.75
2019-02-19T09:16:53.963Z,100626.82
2019-02-19T09:18:00.273Z,100619.88
2019-02-19T09:19:07.077Z,100626.50
2019-02-19T09:20:15.199Z,100615.15
2019-02-19T09:21:21.904Z,100619.20
2019-02-19T09:22:28.765Z,100617.94
2019-02-19T09:23:35.564Z,100625.02
2019-02-19T09:24:42.727Z,100625.14
2019-02-19T09:25:48.538Z,100622.97
2019-02-19T09:26:55.627Z,100625.60
2019-02-19T09:28:02.580Z,100622.14
2019-02-19T09:29:09.125Z,100622.11
2019-02-19T09:30:15.819Z,100617.30
2019-02-19T09:31:22.680Z,100619.11
2019-02-19T09:32:28.657Z,100620.06
2019-02-19T09:33:36.004Z,100624.95
2019-02-19T09:34:42.084Z,100614.02
2019-02-19T09:35:50.538Z,100620.63
2019-02-19T09:36:56.754Z,100622.86
2019-02-19T09:38:02.900Z,100622.00
2019-02-19T09:39:09.857Z,100623.84
2019-02-19T09:40:16.346Z,100631.73
2019-02-19T09:41:22.918Z,100631.77
2019-02-19T09:42:29.405Z,100637.98
2019-02-19T09:43:36.305Z,100634.08
2019-02-19T09:44:42.145Z,100647.74
2019-02-19T09:45:48.977Z,100642.47
2019-02-19T09:46:55.864Z,100637.66
2019-02-19T09:48:01.775Z,100640.29
2019-02-19T09:49:08.345Z,100637.68
2019-02-19T09:50:15.486Z,100648.77
2019-02-19T09:51:23.157Z,100640.02
2019-02-19T09:52:29.758Z,100632.58
2019-02-19T09:53:35.518Z,100637.00
2019-02-19T09:54:43.438Z,100644.48
2019-02-19T09:55:49.818Z,100644.08
2019-02-19T09:56:55.978Z,100644.95
2019-02-19T09:58:04.178Z,100644.09
2019-02-19T09:59:10.425Z,100640.09
2019-02-19T10:00:16.497Z,100644.50
2019-02-19T10:01:23.223Z,100642.34
2019-02-19T10:02:29.538Z,100641.00
2019-02-19T10:03:36.606Z,100650.30
2019-02-19T10:04:43.292Z,100640.66
2019-02-19T10:05:49.319Z,100639.83
2019-02-19T10:06:56.120Z,100647.78
2019-02-19T10:08:02.826Z,100635.95
2019-02-19T10:09:09.721Z,100640.36
2019-02-19T10:10:21.077Z,100644.81
2019-02-19T10:11:27.686Z,100643.52
2019-02-19T10:12:33.833Z,100639.60
2019-02-19T10:13:41.985Z,100637.00
2019-02-19T10:14:47.918Z,100641.00
2019-02-19T10:15:55.305Z,100641.91
2019-02-19T10:17:03.299Z,100643.27
2019-02-19T10:18:10.506Z,100640.63
2019-02-19T10:19:16.890Z,100642.41
2019-02-19T10:20:23.257Z,100639.83
2019-02-19T10:21:29.675Z,100633.27
2019-02-19T10:22:35.458Z,100641.65
2019-02-19T10:23:41.799Z,100643.45
2019-02-19T10:24:48.285Z,100635.11
2019-02-19T10:25:55.045Z,100636.45
2019-02-19T10:27:00.817Z,100636.00
2019-02-19T10:28:07.218Z,100631.18
2019-02-19T10:29:15.098Z,100627.66
2019-02-19T10:30:23.144Z,100627.23
2019-02-19T10:31:29.185Z,100625.47
2019-02-19T10:32:35.065Z,100629.00
2019-02-19T10:33:42.725Z,100628.16
2019-02-19T10:34:49.218Z,100617.61
2019-02-19T10:35:55.215Z,100619.39
2019-02-19T10:37:02.099Z,100622.49
2019-02-19T10:38:08.308Z,100622.95
2019-02-19T10:39:14.698Z,100620.75
2019-02-19T10:40:22.425Z,100615.47
2019-02-19T10:41:28.558Z,100621.22
2019-02-19T10:42:34.538Z,100629.13
2019-02-19T10:43:41.224Z,100619.91
2019-02-19T10:44:47.145Z,100624.78
2019-02-19T10:45:54.545Z,100622.59
2019-02-19T10:47:02.985Z,100621.28
2019-02-19T10:48:09.165Z,100618.23
2019-02-19T10:49:15.198Z,100618.28
2019-02-19T10:50:22.018Z,100616.98
2019-02-19T10:51:29.485Z,100616.16
2019-02-19T10:52:36.185Z,100612.61
2019-02-19T10:53:42.844Z,100614.36
2019-02-19T10:54:51.145Z,100613.52
2019-02-19T10:55:56.865Z,100607.81
2019-02-19T10:57:02.867Z,100609.61
2019-02-19T10:58:08.979Z,100610.08
2019-02-19T10:59:15.506Z,100614.91
2019-02-19T11:00:43.718Z,100601.25
2019-02-19T11:01:50.267Z,100616.68
2019-02-19T11:02:56.198Z,100610.09
2019-02-19T11:04:03.128Z,100611.88
2019-02-19T11:05:11.740Z,100610.53
2019-02-19T11:06:19.626Z,100612.77
2019-02-19T11:07:26.658Z,100613.18
2019-02-19T11:08:33.738Z,100608.78
2019-02-19T11:09:40.359Z,100611.43
2019-02-19T11:10:47.019Z,100608.36
2019-02-19T11:11:55.619Z,100614.09
2019-02-19T11:13:03.401Z,100614.55
2019-02-19T11:14:10.338Z,100608.36
2019-02-19T11:15:17.462Z,100611.02
2019-02-19T11:16:23.645Z,100611.03
2019-02-19T11:17:30.079Z,100612.77
2019-02-19T11:18:57.626Z,100609.70
2019-02-19T11:20:07.283Z,100606.16
2019-02-19T11:21:19.355Z,100606.16
2019-02-19T11:22:20.869Z,100606.17
2019-02-19T11:23:27.818Z,100599.98
2019-02-19T11:24:34.826Z,100602.64
2019-02-19T11:25:41.626Z,100605.30
2019-02-19T11:26:48.746Z,100598.21
2019-02-19T11:27:54.779Z,100601.75
2019-02-19T11:29:01.938Z,100606.16
2019-02-19T11:30:17.554Z,100606.62
2019-02-19T11:31:25.878Z,100598.67
2019-02-19T11:32:34.022Z,100595.58
2019-02-19T11:33:39.978Z,100595.58
2019-02-19T11:34:47.619Z,100571.77
2019-02-19T11:35:54.821Z,100571.77
2019-02-19T11:37:01.499Z,100584.54
2019-02-19T11:38:08.118Z,100584.54
2019-02-19T11:39:13.985Z,100582.80
2019-02-19T11:40:22.605Z,100584.09
2019-02-19T11:41:29.427Z,100581.46
2019-02-19T11:42:35.319Z,100575.29
2019-02-19T11:43:42.359Z,100574.81
2019-02-19T11:44:49.879Z,100577.05
2019-02-19T11:45:56.048Z,100577.03
2019-02-19T11:47:02.846Z,100570.84
2019-02-19T11:48:09.247Z,100573.11
2019-02-19T11:49:15.225Z,100573.55
2019-02-19T11:50:21.378Z,100569.55
2019-02-19T11:51:27.187Z,100569.55
2019-02-19T11:52:32.938Z,100566.00
2019-02-19T11:53:39.534Z,100566.00
2019-02-19T11:54:45.459Z,100570.86
2019-02-19T11:55:51.928Z,100569.06
2019-02-19T11:56:59.180Z,100569.06
2019-02-19T11:58:05.162Z,100554.48
2019-02-19T11:59:11.586Z,100552.69
2019-02-19T12:00:20.159Z,100554.91
2019-02-19T12:01:27.748Z,100550.49
2019-02-19T12:02:34.579Z,100559.75
2019-02-19T12:03:41.118Z,100561.96
2019-02-19T12:04:47.986Z,100562.37
2019-02-19T12:05:54.985Z,100562.37
2019-02-19T12:07:01.067Z,100553.14
2019-02-19T12:08:07.926Z,100552.21
2019-02-19T12:09:14.779Z,100550.45
2019-02-19T12:10:21.262Z,100550.45
2019-02-19T12:11:27.946Z,100536.73
2019-02-19T12:12:37.087Z,100536.73
2019-02-19T12:13:42.980Z,100556.50
2019-02-19T12:14:49.427Z,100535.34
2019-02-19T12:15:56.430Z,100535.34
2019-02-19T12:17:02.702Z,100559.13
2019-02-19T12:18:09.750Z,100551.15
2019-02-19T12:19:16.268Z,100551.15
2019-02-19T12:20:22.303Z,100559.55
2019-02-19T12:21:29.610Z,100553.39
2019-02-19T12:22:36.211Z,100547.12
2019-02-19T12:23:44.377Z,100559.06
2019-02-19T12:24:51.039Z,100562.58
2019-02-19T12:25:57.411Z,100562.58
2019-02-19T12:27:04.470Z,100551.94
2019-02-19T12:28:11.997Z,100554.62
2019-02-19T12:29:17.838Z,100548.87
2019-02-19T12:30:24.614Z,100552.88
2019-02-19T12:31:31.039Z,100556.83
2019-02-19T12:32:37.310Z,100548.90
2019-02-19T12:33:44.058Z,100557.30
2019-02-19T12:34:52.578Z,100564.34
2019-02-19T12:35:58.999Z,100564.34
2019-02-19T12:37:05.716Z,100561.69
2019-02-19T12:38:15.600Z,100569.17
2019-02-19T12:39:23.101Z,100573.59
2019-02-19T12:40:30.095Z,100575.81
2019-02-19T12:41:38.002Z,100575.38
2019-02-19T12:42:45.534Z,100584.66
2019-02-19T12:43:52.369Z,100581.56
2019-02-19T12:44:59.737Z,100576.25
2019-02-19T12:46:05.987Z,100576.25
2019-02-19T12:47:12.364Z,100583.79
2019-02-19T12:48:19.357Z,100593.08